Julius Nyerere International Airport

Airport
ICAO code: 
HTDA
IATA Code: 
DAR
Summary
ICAO Region: 
AFI
Territory: 
Location: 
Dar es Salaam, Dar es Salaam Region
Serving: 
Dar es Salaam
Elevation: 
196 ft
Coordinates: 
Aerial View: 
6° 52' 21.144" S, 39° 12' 24.912" E
Metar
Observation
HTDA 281100Z 05012KT 9999 FEW022 BKN027 31/23 Q1009 NOSIG
Station
Dar Es Salaam Airport
Date/Time
2022-01-28 11:00:00
Wind direction
50°
Wind speed
12 kts
Lowest cloud amount
few clouds
Temperature
31°C
Dew point
23°C
Humidity
62%
QNH
1009 hPa
Weather condition
n/a

Julius Nyerere International Airport is the international airport of Dar es Salaam, the largest city in Tanzania. It is located about 12 km southwest of the city centre.

Climatology

Tropical Savanna climate (Köppen climate classification Aw)

Runways

Designator Length Width Surface Rops
14/32 1000 30 ASP Yes/Yes
5/23 3000 46 ASP Yes/Yes
Airport map: 
Aerial View: 

SKYbrary Partners:

Safety knowledge contributed by: